Orbital elements of SL-12 R/B(2)
| Launched | 1 April 1992 |
| Flight ended | – |
| Launch site | Tyuratam Missile and Space Center, Kazakhstan (Also known as Baikonur Cosmodrome) |
| Owner | Commonwealth of Independent States (former USSR) |
| NORAD ID | 21925 |
| Date fetched |
Epoch osculation |
Inc. [°] |
Ecc. | RA asc node [hr] |
Arg Peri. [°] |
Mean anom [°] |
Mean motion [rev/day] |
Abs. mag |
| Date fetched |
Epoch osculation |
Inc. [°] |
Ecc. | RA asc node [hr] |
Arg Peri. [°] |
Mean anom [°] |
Mean motion [rev/day] |
Abs. mag |
| 2026 May 05 17:57 | 2026 May 04 21:39:53 | 13.0971 | 0.00212 | 22.7263 | 66.2798 | 115.7320 | 1.01086 | 6.243 |
| 2026 May 04 17:57 | 2026 Apr 30 09:47:35 | 13.1007 | 0.00212 | 22.7284 | 66.0937 | 115.7320 | 1.01086 | 6.243 |
| 2026 May 03 17:57 | 2026 Apr 30 09:47:35 | 13.1007 | 0.00212 | 22.7284 | 66.0937 | 115.7320 | 1.01086 | 6.243 |
| 2026 May 02 17:57 | 2026 Apr 30 09:47:35 | 13.1007 | 0.00212 | 22.7284 | 66.0937 | 115.7320 | 1.01086 | 6.243 |
| 2026 May 01 17:56 | 2026 Apr 30 09:47:35 | 13.1007 | 0.00212 | 22.7284 | 66.0937 | 115.7320 | 1.01086 | 6.243 |
| 2026 Apr 30 17:56 | 2026 Apr 30 09:47:35 | 13.1007 | 0.00212 | 22.7284 | 66.0937 | 115.7320 | 1.01086 | 6.243 |
| 2026 Apr 29 17:57 | 2026 Apr 24 11:40:41 | 13.1052 | 0.00213 | 22.7312 | 65.8209 | 115.7320 | 1.01086 | 6.243 |
| 2026 Apr 28 17:56 | 2026 Apr 24 11:40:41 | 13.1052 | 0.00213 | 22.7312 | 65.8209 | 115.7320 | 1.01086 | 6.243 |
| 2026 Apr 27 17:58 | 2026 Apr 24 11:40:41 | 13.1052 | 0.00213 | 22.7312 | 65.8209 | 115.7320 | 1.01086 | 6.243 |
| 2026 Apr 26 17:58 | 2026 Apr 24 11:40:41 | 13.1052 | 0.00213 | 22.7312 | 65.8209 | 115.7320 | 1.01086 | 6.243 |
| 2026 Apr 25 17:58 | 2026 Apr 24 11:40:41 | 13.1052 | 0.00213 | 22.7312 | 65.8209 | 115.7320 | 1.01086 | 6.243 |
| 2026 Apr 24 17:59 | 2026 Apr 24 11:40:41 | 13.1052 | 0.00213 | 22.7312 | 65.8209 | 115.7320 | 1.01086 | 6.243 |
| 2026 Apr 23 17:57 | 2026 Apr 19 02:25:09 | 13.1093 | 0.00213 | 22.7339 | 65.2255 | 115.7320 | 1.01086 | 6.243 |
| 2026 Apr 22 17:57 | 2026 Apr 19 02:25:09 | 13.1093 | 0.00213 | 22.7339 | 65.2255 | 115.7320 | 1.01086 | 6.243 |
| 2026 Apr 21 17:57 | 2026 Apr 19 02:25:09 | 13.1093 | 0.00213 | 22.7339 | 65.2255 | 115.7320 | 1.01086 | 6.243 |
| 2026 Apr 20 17:57 | 2026 Apr 19 02:25:09 | 13.1093 | 0.00213 | 22.7339 | 65.2255 | 115.7320 | 1.01086 | 6.243 |
| 2026 Apr 19 17:58 | 2026 Apr 19 02:25:09 | 13.1093 | 0.00213 | 22.7339 | 65.2255 | 115.7320 | 1.01086 | 6.243 |
| 2026 Apr 18 17:56 | 2026 Apr 13 03:31:38 | 13.1137 | 0.00212 | 22.7368 | 64.6704 | 115.7320 | 1.01086 | 6.243 |
| 2026 Apr 16 17:57 | 2026 Apr 13 03:31:38 | 13.1137 | 0.00212 | 22.7368 | 64.6704 | 115.7320 | 1.01086 | 6.243 |
| 2026 Apr 14 17:57 | 2026 Apr 13 03:31:38 | 13.1137 | 0.00212 | 22.7368 | 64.6704 | 115.7320 | 1.01086 | 6.243 |
| 2026 Apr 13 17:57 | 2026 Apr 13 03:31:38 | 13.1137 | 0.00212 | 22.7368 | 64.6704 | 115.7320 | 1.01086 | 6.243 |
| 2026 Apr 12 17:57 | 2026 Apr 08 05:17:05 | 13.1175 | 0.00211 | 22.7392 | 64.4497 | 115.7320 | 1.01086 | 6.243 |
| 2026 Apr 11 17:57 | 2026 Apr 08 05:17:05 | 13.1175 | 0.00211 | 22.7392 | 64.4497 | 115.7320 | 1.01086 | 6.243 |
| 2026 Apr 10 17:58 | 2026 Apr 08 05:17:05 | 13.1175 | 0.00211 | 22.7392 | 64.4497 | 115.7320 | 1.01086 | 6.243 |
| 2026 Apr 09 18:01 | 2026 Apr 08 05:17:05 | 13.1175 | 0.00211 | 22.7392 | 64.4497 | 115.7320 | 1.01086 | 6.243 |
| 2026 Apr 08 17:57 | 2026 Apr 08 05:17:05 | 13.1175 | 0.00211 | 22.7392 | 64.4497 | 115.7320 | 1.01086 | 6.243 |